sensor_id;sensor_type;location;lat;lon;timestamp;temperature;humidity
67893;DHT22;54688;52.376;16.744;2023-02-22T00:00:35;4.8;73.5
67893;DHT22;54688;52.376;16.744;2023-02-22T00:03:50;4.8;73.9
67893;DHT22;54688;52.376;16.744;2023-02-22T00:06:52;4.8;73.3
67893;DHT22;54688;52.376;16.744;2023-02-22T00:09:55;4.8;73.4
67893;DHT22;54688;52.376;16.744;2023-02-22T00:12:58;4.9;73.3
67893;DHT22;54688;52.376;16.744;2023-02-22T00:16:00;4.8;73.6
67893;DHT22;54688;52.376;16.744;2023-02-22T00:19:02;4.9;73.4
67893;DHT22;54688;52.376;16.744;2023-02-22T00:22:05;4.9;73.3
67893;DHT22;54688;52.376;16.744;2023-02-22T00:25:07;4.9;73.4
67893;DHT22;54688;52.376;16.744;2023-02-22T00:34:07;4.9;73.6
67893;DHT22;54688;52.376;16.744;2023-02-22T00:37:09;4.9;73.5
67893;DHT22;54688;52.376;16.744;2023-02-22T00:40:14;4.9;73.7
67893;DHT22;54688;52.376;16.744;2023-02-22T00:43:18;4.8;73.5
67893;DHT22;54688;52.376;16.744;2023-02-22T00:46:21;4.9;74
67893;DHT22;54688;52.376;16.744;2023-02-22T00:49:23;4.9;73.5
67893;DHT22;54688;52.376;16.744;2023-02-22T00:52:28;4.8;73.6
67893;DHT22;54688;52.376;16.744;2023-02-22T00:55:31;4.8;73.8
67893;DHT22;54688;52.376;16.744;2023-02-22T00:58:35;4.8;73.9
67893;DHT22;54688;52.376;16.744;2023-02-22T01:01:38;4.7;74
67893;DHT22;54688;52.376;16.744;2023-02-22T01:04:40;4.7;74
67893;DHT22;54688;52.376;16.744;2023-02-22T01:07:42;4.6;74.2
67893;DHT22;54688;52.376;16.744;2023-02-22T01:10:45;4.6;74.6
67893;DHT22;54688;52.376;16.744;2023-02-22T01:13:47;4.6;74.5
67893;DHT22;54688;52.376;16.744;2023-02-22T01:16:51;4.6;74.6
67893;DHT22;54688;52.376;16.744;2023-02-22T01:19:54;4.5;74.7
67893;DHT22;54688;52.376;16.744;2023-02-22T01:22:57;4.5;75.1
67893;DHT22;54688;52.376;16.744;2023-02-22T01:26:00;4.5;75.2
67893;DHT22;54688;52.376;16.744;2023-02-22T01:29:03;4.4;75.2
67893;DHT22;54688;52.376;16.744;2023-02-22T01:32:06;4.4;75.4
67893;DHT22;54688;52.376;16.744;2023-02-22T01:35:10;4.4;75.4
67893;DHT22;54688;52.376;16.744;2023-02-22T01:38:17;4.5;75.6
67893;DHT22;54688;52.376;16.744;2023-02-22T01:41:20;4.4;75.6
67893;DHT22;54688;52.376;16.744;2023-02-22T01:44:25;4.4;75.5
67893;DHT22;54688;52.376;16.744;2023-02-22T01:47:32;4.4;75.5
67893;DHT22;54688;52.376;16.744;2023-02-22T01:50:35;4.4;75.4
67893;DHT22;54688;52.376;16.744;2023-02-22T01:53:43;4.4;75.5
67893;DHT22;54688;52.376;16.744;2023-02-22T01:56:51;4.4;75.8
67893;DHT22;54688;52.376;16.744;2023-02-22T01:59:59;4.3;75.7
67893;DHT22;54688;52.376;16.744;2023-02-22T02:03:05;4.3;77.1
67893;DHT22;54688;52.376;16.744;2023-02-22T02:06:13;4.2;76.3
67893;DHT22;54688;52.376;16.744;2023-02-22T02:09:18;4.1;76.2
67893;DHT22;54688;52.376;16.744;2023-02-22T02:12:26;4.1;76.4
67893;DHT22;54688;52.376;16.744;2023-02-22T02:15:31;4.1;76.4
67893;DHT22;54688;52.376;16.744;2023-02-22T02:18:35;4.1;76.6
67893;DHT22;54688;52.376;16.744;2023-02-22T02:21:39;4;76.6
67893;DHT22;54688;52.376;16.744;2023-02-22T02:25:12;3.9;76.9
67893;DHT22;54688;52.376;16.744;2023-02-22T02:28:35;3.8;77
67893;DHT22;54688;52.376;16.744;2023-02-22T02:34:56;3.6;77.3
67893;DHT22;54688;52.376;16.744;2023-02-22T02:38:07;3.5;77.5
67893;DHT22;54688;52.376;16.744;2023-02-22T02:41:16;3.4;77.7
67893;DHT22;54688;52.376;16.744;2023-02-22T02:47:31;3.1;78
67893;DHT22;54688;52.376;16.744;2023-02-22T02:50:39;3;78.4
67893;DHT22;54688;52.376;16.744;2023-02-22T02:53:46;2.9;78.9
67893;DHT22;54688;52.376;16.744;2023-02-22T02:56:50;2.8;79
67893;DHT22;54688;52.376;16.744;2023-02-22T02:59:53;2.7;79.3
67893;DHT22;54688;52.376;16.744;2023-02-22T03:02:57;2.5;79.6
67893;DHT22;54688;52.376;16.744;2023-02-22T03:06:15;2.5;79.8
67893;DHT22;54688;52.376;16.744;2023-02-22T03:09:35;2.3;79.9
67893;DHT22;54688;52.376;16.744;2023-02-22T03:12:47;2.2;79.9
67893;DHT22;54688;52.376;16.744;2023-02-22T03:15:59;2.1;80.1
67893;DHT22;54688;52.376;16.744;2023-02-22T03:19:15;2;79.9
67893;DHT22;54688;52.376;16.744;2023-02-22T03:22:23;1.8;79.6
67893;DHT22;54688;52.376;16.744;2023-02-22T03:25:31;1.8;79.9
67893;DHT22;54688;52.376;16.744;2023-02-22T03:28:36;1.6;79.7
67893;DHT22;54688;52.376;16.744;2023-02-22T03:31:43;1.5;79.7
67893;DHT22;54688;52.376;16.744;2023-02-22T03:34:50;1.4;79.7
67893;DHT22;54688;52.376;16.744;2023-02-22T03:37:55;1.3;79.8
67893;DHT22;54688;52.376;16.744;2023-02-22T03:41:02;1.1;79.6
67893;DHT22;54688;52.376;16.744;2023-02-22T03:44:09;1.1;79.7
67893;DHT22;54688;52.376;16.744;2023-02-22T03:47:20;1;80.2
67893;DHT22;54688;52.376;16.744;2023-02-22T03:50:25;0.9;80.8
67893;DHT22;54688;52.376;16.744;2023-02-22T03:53:33;0.9;81
67893;DHT22;54688;52.376;16.744;2023-02-22T03:56:41;0.8;80.9
67893;DHT22;54688;52.376;16.744;2023-02-22T03:59:46;0.7;81
67893;DHT22;54688;52.376;16.744;2023-02-22T04:02:48;0.7;81
67893;DHT22;54688;52.376;16.744;2023-02-22T04:05:51;0.6;80.9
67893;DHT22;54688;52.376;16.744;2023-02-22T04:08:54;0.6;81
67893;DHT22;54688;52.376;16.744;2023-02-22T04:11:56;0.5;81
67893;DHT22;54688;52.376;16.744;2023-02-22T04:15:00;0.4;81.9
67893;DHT22;54688;52.376;16.744;2023-02-22T04:18:06;0.3;81.3
67893;DHT22;54688;52.376;16.744;2023-02-22T04:21:09;0.3;81.3
67893;DHT22;54688;52.376;16.744;2023-02-22T04:24:12;0.2;81.3
67893;DHT22;54688;52.376;16.744;2023-02-22T04:27:17;0.1;81.3
67893;DHT22;54688;52.376;16.744;2023-02-22T04:30:24;0.1;81.4
67893;DHT22;54688;52.376;16.744;2023-02-22T04:33:27;0;81.4
67893;DHT22;54688;52.376;16.744;2023-02-22T04:36:32;-0.1;81.3
67893;DHT22;54688;52.376;16.744;2023-02-22T04:39:35;-0.2;81.3
67893;DHT22;54688;52.376;16.744;2023-02-22T04:42:38;-0.2;81.8
67893;DHT22;54688;52.376;16.744;2023-02-22T04:45:42;-0.3;81.5
67893;DHT22;54688;52.376;16.744;2023-02-22T04:48:44;-0.3;81.6
67893;DHT22;54688;52.376;16.744;2023-02-22T04:51:48;-0.4;81.8
67893;DHT22;54688;52.376;16.744;2023-02-22T04:54:52;-0.4;81.9
67893;DHT22;54688;52.376;16.744;2023-02-22T04:57:56;-0.5;82
67893;DHT22;54688;52.376;16.744;2023-02-22T05:00:59;-0.6;82.1
67893;DHT22;54688;52.376;16.744;2023-02-22T05:04:03;-0.6;82.2
67893;DHT22;54688;52.376;16.744;2023-02-22T05:07:07;-0.7;82
67893;DHT22;54688;52.376;16.744;2023-02-22T05:10:11;-0.7;82.1
67893;DHT22;54688;52.376;16.744;2023-02-22T05:13:14;-0.7;82
67893;DHT22;54688;52.376;16.744;2023-02-22T05:16:20;-0.8;82
67893;DHT22;54688;52.376;16.744;2023-02-22T05:19:23;-0.8;82.1
67893;DHT22;54688;52.376;16.744;2023-02-22T05:22:32;-0.9;82.1
67893;DHT22;54688;52.376;16.744;2023-02-22T05:25:36;-0.9;82
67893;DHT22;54688;52.376;16.744;2023-02-22T05:28:40;-0.9;81.9
67893;DHT22;54688;52.376;16.744;2023-02-22T05:31:43;-1;82
67893;DHT22;54688;52.376;16.744;2023-02-22T05:34:47;-1;81.9
67893;DHT22;54688;52.376;16.744;2023-02-22T05:37:53;-1;82.1
67893;DHT22;54688;52.376;16.744;2023-02-22T05:40:57;-1.1;81.9
67893;DHT22;54688;52.376;16.744;2023-02-22T05:44:00;-1.2;82.1
67893;DHT22;54688;52.376;16.744;2023-02-22T05:47:05;-1.2;82.9
67893;DHT22;54688;52.376;16.744;2023-02-22T05:50:09;-1.2;82.4
67893;DHT22;54688;52.376;16.744;2023-02-22T05:53:16;-1.2;82.3
67893;DHT22;54688;52.376;16.744;2023-02-22T05:56:19;-1.2;82.5
67893;DHT22;54688;52.376;16.744;2023-02-22T05:59:23;-1.2;82.8
67893;DHT22;54688;52.376;16.744;2023-02-22T06:02:26;-1.2;82.8
67893;DHT22;54688;52.376;16.744;2023-02-22T06:05:28;-1.1;82.8
67893;DHT22;54688;52.376;16.744;2023-02-22T06:08:32;-1.1;82.9
67893;DHT22;54688;52.376;16.744;2023-02-22T06:11:37;-1.1;82.9
67893;DHT22;54688;52.376;16.744;2023-02-22T06:17:39;-1;82.9
67893;DHT22;54688;52.376;16.744;2023-02-22T06:20:40;-0.9;82.7
67893;DHT22;54688;52.376;16.744;2023-02-22T06:23:44;-0.9;82.7
67893;DHT22;54688;52.376;16.744;2023-02-22T06:26:53;-0.9;82.4
67893;DHT22;54688;52.376;16.744;2023-02-22T06:29:57;-0.9;82.3
67893;DHT22;54688;52.376;16.744;2023-02-22T06:33:02;-0.8;82.6
67893;DHT22;54688;52.376;16.744;2023-02-22T06:36:07;-0.7;83
67893;DHT22;54688;52.376;16.744;2023-02-22T06:39:10;-0.7;83.3
67893;DHT22;54688;52.376;16.744;2023-02-22T06:42:12;-0.6;83.7
67893;DHT22;54688;52.376;16.744;2023-02-22T06:45:17;-0.5;83.9
67893;DHT22;54688;52.376;16.744;2023-02-22T06:48:26;-0.4;83.9
67893;DHT22;54688;52.376;16.744;2023-02-22T06:51:34;-0.3;83.8
67893;DHT22;54688;52.376;16.744;2023-02-22T06:54:39;-0.3;83.6
67893;DHT22;54688;52.376;16.744;2023-02-22T06:57:42;-0.2;83.3
67893;DHT22;54688;52.376;16.744;2023-02-22T07:00:45;-0.2;83.2
67893;DHT22;54688;52.376;16.744;2023-02-22T07:03:48;-0.3;83
67893;DHT22;54688;52.376;16.744;2023-02-22T07:06:51;-0.3;83
67893;DHT22;54688;52.376;16.744;2023-02-22T07:09:55;-0.2;83.5
67893;DHT22;54688;52.376;16.744;2023-02-22T07:12:58;-0.2;83.4
67893;DHT22;54688;52.376;16.744;2023-02-22T07:16:03;-0.1;83.4
67893;DHT22;54688;52.376;16.744;2023-02-22T07:22:05;0;83.4
67893;DHT22;54688;52.376;16.744;2023-02-22T07:25:12;0;83.7
67893;DHT22;54688;52.376;16.744;2023-02-22T07:28:15;0.1;84.2
67893;DHT22;54688;52.376;16.744;2023-02-22T07:31:27;0.2;84.7
67893;DHT22;54688;52.376;16.744;2023-02-22T07:34:29;0.3;85
67893;DHT22;54688;52.376;16.744;2023-02-22T07:37:37;0.5;85.2
67893;DHT22;54688;52.376;16.744;2023-02-22T07:40:39;0.6;85.6
67893;DHT22;54688;52.376;16.744;2023-02-22T07:43:42;0.7;85.6
67893;DHT22;54688;52.376;16.744;2023-02-22T07:46:45;0.8;85.6
67893;DHT22;54688;52.376;16.744;2023-02-22T07:49:50;0.9;85.7
67893;DHT22;54688;52.376;16.744;2023-02-22T07:52:55;1;85.6
67893;DHT22;54688;52.376;16.744;2023-02-22T07:56:02;1.1;85.5
67893;DHT22;54688;52.376;16.744;2023-02-22T07:59:06;1.2;85.9
67893;DHT22;54688;52.376;16.744;2023-02-22T08:02:16;1.3;86.1
67893;DHT22;54688;52.376;16.744;2023-02-22T08:05:18;1.4;86.2
67893;DHT22;54688;52.376;16.744;2023-02-22T08:08:22;1.5;86.4
67893;DHT22;54688;52.376;16.744;2023-02-22T08:11:25;1.6;86.5
67893;DHT22;54688;52.376;16.744;2023-02-22T08:14:31;1.7;86.5
67893;DHT22;54688;52.376;16.744;2023-02-22T08:17:33;1.8;86.8
67893;DHT22;54688;52.376;16.744;2023-02-22T08:20:37;1.9;86.7
67893;DHT22;54688;52.376;16.744;2023-02-22T08:23:44;2;86.5
67893;DHT22;54688;52.376;16.744;2023-02-22T08:26:53;2.1;86.1
67893;DHT22;54688;52.376;16.744;2023-02-22T08:29:55;2.1;85.6
67893;DHT22;54688;52.376;16.744;2023-02-22T08:32:58;2.2;85.4
67893;DHT22;54688;52.376;16.744;2023-02-22T08:36:01;2.2;85.2
67893;DHT22;54688;52.376;16.744;2023-02-22T08:39:05;2.3;85.2
67893;DHT22;54688;52.376;16.744;2023-02-22T08:42:14;2.3;85.2
67893;DHT22;54688;52.376;16.744;2023-02-22T08:45:19;2.5;85.6
67893;DHT22;54688;52.376;16.744;2023-02-22T08:48:23;2.6;85.4
67893;DHT22;54688;52.376;16.744;2023-02-22T08:51:26;2.8;85.1
67893;DHT22;54688;52.376;16.744;2023-02-22T08:57:27;3.1;84.1
67893;DHT22;54688;52.376;16.744;2023-02-22T09:00:31;3.2;83.4
67893;DHT22;54688;52.376;16.744;2023-02-22T09:03:35;3.4;83
67893;DHT22;54688;52.376;16.744;2023-02-22T09:06:39;3.4;82.2
67893;DHT22;54688;52.376;16.744;2023-02-22T09:09:45;3.6;81.6
67893;DHT22;54688;52.376;16.744;2023-02-22T09:12:47;3.7;81.2
67893;DHT22;54688;52.376;16.744;2023-02-22T09:15:52;3.9;80.6
67893;DHT22;54688;52.376;16.744;2023-02-22T09:18:54;4;79.8
67893;DHT22;54688;52.376;16.744;2023-02-22T09:22:02;4.1;79
67893;DHT22;54688;52.376;16.744;2023-02-22T09:25:09;4.2;77.1
67893;DHT22;54688;52.376;16.744;2023-02-22T09:28:13;4.2;77.3
67893;DHT22;54688;52.376;16.744;2023-02-22T09:31:17;4.2;76.8
67893;DHT22;54688;52.376;16.744;2023-02-22T09:34:20;4.2;76.7
67893;DHT22;54688;52.376;16.744;2023-02-22T09:37:23;4.2;76.7
67893;DHT22;54688;52.376;16.744;2023-02-22T09:40:27;4.2;76.7
67893;DHT22;54688;52.376;16.744;2023-02-22T09:43:33;4.3;76.7
67893;DHT22;54688;52.376;16.744;2023-02-22T09:46:43;4.3;75.8
67893;DHT22;54688;52.376;16.744;2023-02-22T09:49:53;4.3;75.6
67893;DHT22;54688;52.376;16.744;2023-02-22T09:52:59;4.3;75.6
67893;DHT22;54688;52.376;16.744;2023-02-22T09:56:05;4.3;75.4
67893;DHT22;54688;52.376;16.744;2023-02-22T09:59:09;4.4;75.7
67893;DHT22;54688;52.376;16.744;2023-02-22T10:02:18;4.5;75.1
67893;DHT22;54688;52.376;16.744;2023-02-22T10:05:28;4.5;75
67893;DHT22;54688;52.376;16.744;2023-02-22T10:08:35;4.7;74.4
67893;DHT22;54688;52.376;16.744;2023-02-22T10:11:43;4.8;74
67893;DHT22;54688;52.376;16.744;2023-02-22T10:14:58;4.8;73.5
67893;DHT22;54688;52.376;16.744;2023-02-22T10:18:24;4.9;73.3
67893;DHT22;54688;52.376;16.744;2023-02-22T10:21:40;5;73.2
67893;DHT22;54688;52.376;16.744;2023-02-22T10:24:53;5.1;73.1
67893;DHT22;54688;52.376;16.744;2023-02-22T10:27:59;5.3;72.2
67893;DHT22;54688;52.376;16.744;2023-02-22T10:31:08;5.5;71.9
67893;DHT22;54688;52.376;16.744;2023-02-22T10:34:23;5.8;71.2
67893;DHT22;54688;52.376;16.744;2023-02-22T10:37:27;6;70.3
67893;DHT22;54688;52.376;16.744;2023-02-22T10:40:31;6.1;69.9
67893;DHT22;54688;52.376;16.744;2023-02-22T10:43:35;6.3;69.4
67893;DHT22;54688;52.376;16.744;2023-02-22T10:46:38;6.5;68.3
67893;DHT22;54688;52.376;16.744;2023-02-22T10:49:45;6.6;67.8
67893;DHT22;54688;52.376;16.744;2023-02-22T10:52:49;6.7;67.2
67893;DHT22;54688;52.376;16.744;2023-02-22T10:56:07;6.8;66.4
67893;DHT22;54688;52.376;16.744;2023-02-22T10:59:25;6.9;66.4
67893;DHT22;54688;52.376;16.744;2023-02-22T11:02:30;7;66.5
67893;DHT22;54688;52.376;16.744;2023-02-22T11:05:35;7.1;65.4
67893;DHT22;54688;52.376;16.744;2023-02-22T11:08:39;7.1;65.5
67893;DHT22;54688;52.376;16.744;2023-02-22T11:11:42;7.2;65.1
67893;DHT22;54688;52.376;16.744;2023-02-22T11:14:46;7.2;64.9
67893;DHT22;54688;52.376;16.744;2023-02-22T11:17:49;7.3;65.2
67893;DHT22;54688;52.376;16.744;2023-02-22T11:20:58;7.3;64.5
67893;DHT22;54688;52.376;16.744;2023-02-22T11:24:02;7.4;64.2
67893;DHT22;54688;52.376;16.744;2023-02-22T11:27:06;7.4;63.5
67893;DHT22;54688;52.376;16.744;2023-02-22T11:30:11;7.5;63.2
67893;DHT22;54688;52.376;16.744;2023-02-22T11:33:22;7.5;64.8
67893;DHT22;54688;52.376;16.744;2023-02-22T11:36:30;7.7;64
67893;DHT22;54688;52.376;16.744;2023-02-22T11:39:34;7.8;63.7
67893;DHT22;54688;52.376;16.744;2023-02-22T11:42:36;7.8;62.8
67893;DHT22;54688;52.376;16.744;2023-02-22T11:45:38;7.9;62.4
67893;DHT22;54688;52.376;16.744;2023-02-22T11:48:57;7.9;62.8
67893;DHT22;54688;52.376;16.744;2023-02-22T11:52:04;7.9;63
67893;DHT22;54688;52.376;16.744;2023-02-22T11:55:18;8.1;62.9
67893;DHT22;54688;52.376;16.744;2023-02-22T11:58:28;8.1;61.7
67893;DHT22;54688;52.376;16.744;2023-02-22T12:01:37;8.2;61.6
67893;DHT22;54688;52.376;16.744;2023-02-22T12:04:48;8.3;61.4
67893;DHT22;54688;52.376;16.744;2023-02-22T12:08:06;8.3;60.8
67893;DHT22;54688;52.376;16.744;2023-02-22T12:14:20;8.5;60.8
67893;DHT22;54688;52.376;16.744;2023-02-22T12:17:31;8.7;60.3
67893;DHT22;54688;52.376;16.744;2023-02-22T12:20:43;8.7;59.7
67893;DHT22;54688;52.376;16.744;2023-02-22T12:23:49;8.8;60.2
67893;DHT22;54688;52.376;16.744;2023-02-22T12:26:55;8.9;59.4
67893;DHT22;54688;52.376;16.744;2023-02-22T12:30:02;8.9;59.2
67893;DHT22;54688;52.376;16.744;2023-02-22T12:33:10;9;58.2
67893;DHT22;54688;52.376;16.744;2023-02-22T12:36:17;9.2;58.6
67893;DHT22;54688;52.376;16.744;2023-02-22T12:39:23;9.3;58.3
67893;DHT22;54688;52.376;16.744;2023-02-22T12:42:44;9.4;56.7
67893;DHT22;54688;52.376;16.744;2023-02-22T12:45:51;9.4;57.5
67893;DHT22;54688;52.376;16.744;2023-02-22T12:49:02;9.5;57.4
67893;DHT22;54688;52.376;16.744;2023-02-22T12:52:14;9.5;56.8
67893;DHT22;54688;52.376;16.744;2023-02-22T12:55:30;9.5;56.8
67893;DHT22;54688;52.376;16.744;2023-02-22T12:58:37;9.6;56
67893;DHT22;54688;52.376;16.744;2023-02-22T13:01:51;9.6;55.9
67893;DHT22;54688;52.376;16.744;2023-02-22T13:04:57;9.7;55.8
67893;DHT22;54688;52.376;16.744;2023-02-22T13:08:07;9.7;56
67893;DHT22;54688;52.376;16.744;2023-02-22T13:11:24;9.8;55.2
67893;DHT22;54688;52.376;16.744;2023-02-22T13:14:34;9.9;56.2
67893;DHT22;54688;52.376;16.744;2023-02-22T13:17:48;9.9;55.8
67893;DHT22;54688;52.376;16.744;2023-02-22T13:20:57;9.9;54.7
67893;DHT22;54688;52.376;16.744;2023-02-22T13:24:04;9.9;54.3
67893;DHT22;54688;52.376;16.744;2023-02-22T13:27:12;9.9;54.7
67893;DHT22;54688;52.376;16.744;2023-02-22T13:30:20;10;55
67893;DHT22;54688;52.376;16.744;2023-02-22T13:33:27;10;54.2
67893;DHT22;54688;52.376;16.744;2023-02-22T13:36:40;10;53.7
67893;DHT22;54688;52.376;16.744;2023-02-22T13:40:00;10.1;54
67893;DHT22;54688;52.376;16.744;2023-02-22T13:43:39;10.2;54.6
67893;DHT22;54688;52.376;16.744;2023-02-22T13:46:57;10.3;53.8
67893;DHT22;54688;52.376;16.744;2023-02-22T13:50:21;10.3;53.5
67893;DHT22;54688;52.376;16.744;2023-02-22T13:53:38;10.3;53.1
67893;DHT22;54688;52.376;16.744;2023-02-22T13:56:49;10.2;53.2
67893;DHT22;54688;52.376;16.744;2023-02-22T14:00:37;10.2;52.9
67893;DHT22;54688;52.376;16.744;2023-02-22T14:03:42;10.2;52.8
67893;DHT22;54688;52.376;16.744;2023-02-22T14:06:44;10.1;52.9
67893;DHT22;54688;52.376;16.744;2023-02-22T14:09:47;10;52.8
67893;DHT22;54688;52.376;16.744;2023-02-22T14:12:50;9.9;52.2
67893;DHT22;54688;52.376;16.744;2023-02-22T14:16:23;9.8;54.2
67893;DHT22;54688;52.376;16.744;2023-02-22T14:19:26;9.8;52.7
67893;DHT22;54688;52.376;16.744;2023-02-22T14:22:30;9.9;53.2
67893;DHT22;54688;52.376;16.744;2023-02-22T14:25:35;9.9;52.5
67893;DHT22;54688;52.376;16.744;2023-02-22T14:28:41;9.9;52.1
67893;DHT22;54688;52.376;16.744;2023-02-22T14:31:58;9.9;51.6
67893;DHT22;54688;52.376;16.744;2023-02-22T14:35:04;10;52.2
67893;DHT22;54688;52.376;16.744;2023-02-22T14:38:12;10;52.5
67893;DHT22;54688;52.376;16.744;2023-02-22T14:41:17;10;51.7
67893;DHT22;54688;52.376;16.744;2023-02-22T14:44:24;9.9;51.8
67893;DHT22;54688;52.376;16.744;2023-02-22T14:47:30;9.9;51.8
67893;DHT22;54688;52.376;16.744;2023-02-22T14:50:41;9.9;51.1
67893;DHT22;54688;52.376;16.744;2023-02-22T14:53:48;9.8;51.5
67893;DHT22;54688;52.376;16.744;2023-02-22T14:56:54;9.8;52.8
67893;DHT22;54688;52.376;16.744;2023-02-22T15:00:12;9.7;51.9
67893;DHT22;54688;52.376;16.744;2023-02-22T15:03:17;9.7;51.3
67893;DHT22;54688;52.376;16.744;2023-02-22T15:06:27;9.6;51.4
67893;DHT22;54688;52.376;16.744;2023-02-22T15:09:30;9.5;51.6
67893;DHT22;54688;52.376;16.744;2023-02-22T15:12:32;9.4;51.6
67893;DHT22;54688;52.376;16.744;2023-02-22T15:15:35;9.4;52.2
67893;DHT22;54688;52.376;16.744;2023-02-22T15:18:39;9.3;52.3
67893;DHT22;54688;52.376;16.744;2023-02-22T15:21:44;9.2;52.3
67893;DHT22;54688;52.376;16.744;2023-02-22T15:24:53;9.1;52.1
67893;DHT22;54688;52.376;16.744;2023-02-22T15:28:00;9.1;52.8
67893;DHT22;54688;52.376;16.744;2023-02-22T15:31:35;8.9;52.6
67893;DHT22;54688;52.376;16.744;2023-02-22T15:34:38;8.8;53
67893;DHT22;54688;52.376;16.744;2023-02-22T15:37:40;8.6;53.1
67893;DHT22;54688;52.376;16.744;2023-02-22T15:40:43;8.4;53.4
67893;DHT22;54688;52.376;16.744;2023-02-22T15:43:55;8.2;53.8
67893;DHT22;54688;52.376;16.744;2023-02-22T15:47:02;8;54.2
67893;DHT22;54688;52.376;16.744;2023-02-22T15:50:12;7.8;55
67893;DHT22;54688;52.376;16.744;2023-02-22T15:53:23;7.6;55.1
67893;DHT22;54688;52.376;16.744;2023-02-22T15:56:28;7.3;55.7
67893;DHT22;54688;52.376;16.744;2023-02-22T15:59:31;7.2;56.2
67893;DHT22;54688;52.376;16.744;2023-02-22T16:02:40;6.9;56
67893;DHT22;54688;52.376;16.744;2023-02-22T16:05:43;6.7;57.2
67893;DHT22;54688;52.376;16.744;2023-02-22T16:08:48;6.5;57.8
67893;DHT22;54688;52.376;16.744;2023-02-22T16:12:05;6.3;58.3
67893;DHT22;54688;52.376;16.744;2023-02-22T16:15:15;6.1;58.6
67893;DHT22;54688;52.376;16.744;2023-02-22T16:18:23;5.9;59.1
67893;DHT22;54688;52.376;16.744;2023-02-22T16:21:29;5.8;60
67893;DHT22;54688;52.376;16.744;2023-02-22T16:24:51;5.7;60.1
67893;DHT22;54688;52.376;16.744;2023-02-22T16:27:56;5.5;60.7
67893;DHT22;54688;52.376;16.744;2023-02-22T16:31:00;5.3;61.1
67893;DHT22;54688;52.376;16.744;2023-02-22T16:34:04;5.2;61.9
67893;DHT22;54688;52.376;16.744;2023-02-22T16:37:17;5;62.3
67893;DHT22;54688;52.376;16.744;2023-02-22T16:40:26;4.9;63
67893;DHT22;54688;52.376;16.744;2023-02-22T16:43:30;4.8;63.4
67893;DHT22;54688;52.376;16.744;2023-02-22T16:46:33;4.7;63.6
67893;DHT22;54688;52.376;16.744;2023-02-22T16:49:35;4.6;63.8
67893;DHT22;54688;52.376;16.744;2023-02-22T16:52:39;4.5;65
67893;DHT22;54688;52.376;16.744;2023-02-22T16:55:43;4.3;65.1
67893;DHT22;54688;52.376;16.744;2023-02-22T16:58:47;4.2;65.3
67893;DHT22;54688;52.376;16.744;2023-02-22T17:04:50;4;66
67893;DHT22;54688;52.376;16.744;2023-02-22T17:07:52;3.9;66.5
67893;DHT22;54688;52.376;16.744;2023-02-22T17:10:55;3.8;66.3
67893;DHT22;54688;52.376;16.744;2023-02-22T17:13:59;3.7;65.8
67893;DHT22;54688;52.376;16.744;2023-02-22T17:17:01;3.6;66.7
67893;DHT22;54688;52.376;16.744;2023-02-22T17:20:03;3.6;66.6
67893;DHT22;54688;52.376;16.744;2023-02-22T17:23:07;3.4;67.2
67893;DHT22;54688;52.376;16.744;2023-02-22T17:29:10;3.3;67.6
67893;DHT22;54688;52.376;16.744;2023-02-22T17:32:15;3.2;68
67893;DHT22;54688;52.376;16.744;2023-02-22T17:35:17;3.1;68.3
67893;DHT22;54688;52.376;16.744;2023-02-22T17:38:20;3.1;68.6
67893;DHT22;54688;52.376;16.744;2023-02-22T17:41:23;3;68.5
67893;DHT22;54688;52.376;16.744;2023-02-22T17:44:27;3;69.1
67893;DHT22;54688;52.376;16.744;2023-02-22T17:47:29;2.9;69.2
67893;DHT22;54688;52.376;16.744;2023-02-22T17:50:31;2.9;69.4
67893;DHT22;54688;52.376;16.744;2023-02-22T17:53:34;2.8;69.7
67893;DHT22;54688;52.376;16.744;2023-02-22T17:56:36;2.7;69.4
67893;DHT22;54688;52.376;16.744;2023-02-22T17:59:38;2.7;69.9
67893;DHT22;54688;52.376;16.744;2023-02-22T18:02:42;2.6;70
67893;DHT22;54688;52.376;16.744;2023-02-22T18:05:45;2.6;70.3
67893;DHT22;54688;52.376;16.744;2023-02-22T18:08:49;2.5;70.1
67893;DHT22;54688;52.376;16.744;2023-02-22T18:11:51;2.4;70.3
67893;DHT22;54688;52.376;16.744;2023-02-22T18:14:53;2.4;70.4
67893;DHT22;54688;52.376;16.744;2023-02-22T18:17:56;2.3;70.7
67893;DHT22;54688;52.376;16.744;2023-02-22T18:20:57;2.3;70.7
67893;DHT22;54688;52.376;16.744;2023-02-22T18:26:59;2.1;71
67893;DHT22;54688;52.376;16.744;2023-02-22T18:30:04;2.1;71.3
67893;DHT22;54688;52.376;16.744;2023-02-22T18:33:07;2;70.7
67893;DHT22;54688;52.376;16.744;2023-02-22T18:36:10;2;70.9
67893;DHT22;54688;52.376;16.744;2023-02-22T18:39:12;1.9;70.9
67893;DHT22;54688;52.376;16.744;2023-02-22T18:42:16;1.8;71.3
67893;DHT22;54688;52.376;16.744;2023-02-22T18:45:19;1.8;71.7
67893;DHT22;54688;52.376;16.744;2023-02-22T18:48:21;1.7;71.9
67893;DHT22;54688;52.376;16.744;2023-02-22T18:51:23;1.6;71.9
67893;DHT22;54688;52.376;16.744;2023-02-22T18:54:26;1.6;71.7
67893;DHT22;54688;52.376;16.744;2023-02-22T18:57:28;1.5;71.9
67893;DHT22;54688;52.376;16.744;2023-02-22T19:00:32;1.5;72.2
67893;DHT22;54688;52.376;16.744;2023-02-22T19:03:35;1.4;72.2
67893;DHT22;54688;52.376;16.744;2023-02-22T19:06:38;1.4;72.4
67893;DHT22;54688;52.376;16.744;2023-02-22T19:12:41;1.3;72.7
67893;DHT22;54688;52.376;16.744;2023-02-22T19:15:43;1.2;72.9
67893;DHT22;54688;52.376;16.744;2023-02-22T19:18:45;1.1;72.9
67893;DHT22;54688;52.376;16.744;2023-02-22T19:21:49;1.1;73.5
67893;DHT22;54688;52.376;16.744;2023-02-22T19:24:51;1.1;73.3
67893;DHT22;54688;52.376;16.744;2023-02-22T19:27:54;1.1;73.5
67893;DHT22;54688;52.376;16.744;2023-02-22T19:31:00;1;73.8
67893;DHT22;54688;52.376;16.744;2023-02-22T19:34:11;1;73.9
67893;DHT22;54688;52.376;16.744;2023-02-22T19:37:13;1;74.1
67893;DHT22;54688;52.376;16.744;2023-02-22T19:40:16;0.9;74.2
67893;DHT22;54688;52.376;16.744;2023-02-22T19:43:18;1;74.3
67893;DHT22;54688;52.376;16.744;2023-02-22T19:46:20;0.9;74.3
67893;DHT22;54688;52.376;16.744;2023-02-22T19:49:23;0.9;74.6
67893;DHT22;54688;52.376;16.744;2023-02-22T19:52:26;0.9;74.9
67893;DHT22;54688;52.376;16.744;2023-02-22T19:55:28;0.8;74.8
67893;DHT22;54688;52.376;16.744;2023-02-22T19:58:30;0.8;75
67893;DHT22;54688;52.376;16.744;2023-02-22T20:01:34;0.8;75
67893;DHT22;54688;52.376;16.744;2023-02-22T20:04:37;0.8;75.1
67893;DHT22;54688;52.376;16.744;2023-02-22T20:07:39;0.7;75.1
67893;DHT22;54688;52.376;16.744;2023-02-22T20:10:42;0.7;75.2
67893;DHT22;54688;52.376;16.744;2023-02-22T20:16:44;0.7;75.3
67893;DHT22;54688;52.376;16.744;2023-02-22T20:19:46;0.7;75.5
67893;DHT22;54688;52.376;16.744;2023-02-22T20:22:49;0.6;75.8
67893;DHT22;54688;52.376;16.744;2023-02-22T20:25:51;0.6;75.9
67893;DHT22;54688;52.376;16.744;2023-02-22T20:28:54;0.5;75.8
67893;DHT22;54688;52.376;16.744;2023-02-22T20:31:58;0.5;76
67893;DHT22;54688;52.376;16.744;2023-02-22T20:35:01;0.5;76.4
67893;DHT22;54688;52.376;16.744;2023-02-22T20:38:03;0.5;76.5
67893;DHT22;54688;52.376;16.744;2023-02-22T20:41:05;0.4;76.6
67893;DHT22;54688;52.376;16.744;2023-02-22T20:44:10;0.4;76.7
67893;DHT22;54688;52.376;16.744;2023-02-22T20:47:14;0.4;76.8
67893;DHT22;54688;52.376;16.744;2023-02-22T20:50:16;0.4;76.9
67893;DHT22;54688;52.376;16.744;2023-02-22T20:53:19;0.4;77
67893;DHT22;54688;52.376;16.744;2023-02-22T20:56:22;0.4;77